Time;durP1;ratioP1;P1;durP2;ratioP2;P2;SDS_P1;SDS_P2;PMS_P1;PMS_P2;Temp;Humidity;BMP_temperature;BMP_pressure;BME280_temperature;BME280_humidity;BME280_pressure;Samples;Min_cycle;Max_cycle;Signal;HPM_P1;HPM_P2
2022/05/31 00:01:08;;;;;;;10.98;3.60;;;;;;;20.18;60.16;94679.69;4160119;28;20049;-55
2022/05/31 00:03:10;;;;;;;9.88;3.72;;;;;;;20.19;60.04;94666.16;4165513;28;20044;-53
2022/05/31 00:05:13;;;;;;;7.75;4.18;;;;;;;20.22;60.10;94662.25;4177036;28;20056;-53
2022/05/31 00:07:14;;;;;;;5.78;3.70;;;;;;;20.24;59.92;94662.81;4177292;28;20053;-52
2022/05/31 00:09:17;;;;;;;6.70;3.87;;;;;;;20.24;59.82;94660.16;4162008;28;20085;-57
2022/05/31 00:11:19;;;;;;;6.97;4.28;;;;;;;20.27;59.88;94664.25;4174495;28;20294;-55
2022/05/31 00:13:21;;;;;;;6.32;3.45;;;;;;;20.30;60.03;94661.13;4165836;28;20048;-54
2022/05/31 00:15:22;;;;;;;9.02;3.90;;;;;;;20.31;60.04;94662.78;4167746;28;20046;-54
2022/05/31 00:17:24;;;;;;;6.68;3.60;;;;;;;20.32;59.87;94662.53;4160315;28;20053;-56
2022/05/31 00:19:26;;;;;;;9.52;3.88;;;;;;;20.34;59.91;94668.47;4164994;28;20102;-56
2022/05/31 00:21:41;;;;;;;9.88;3.92;;;;;;;20.39;59.69;94667.78;4176024;28;20048;-53
2022/05/31 00:23:43;;;;;;;7.10;4.20;;;;;;;20.40;59.76;94658.78;4176753;28;20053;-53
2022/05/31 00:25:44;;;;;;;6.35;3.80;;;;;;;20.40;59.76;94662.25;4174685;28;20162;-51
2022/05/31 00:27:46;;;;;;;8.52;3.92;;;;;;;20.40;59.44;94656.94;4177324;28;20122;-55
2022/05/31 00:29:48;;;;;;;4.43;3.35;;;;;;;20.39;59.52;94660.66;4160226;28;20087;-54
2022/05/31 00:31:50;;;;;;;12.43;4.63;;;;;;;20.40;59.35;94667.56;4176292;28;20048;-52
2022/05/31 00:33:52;;;;;;;5.93;3.47;;;;;;;20.40;59.39;94666.78;4168994;28;20123;-53
2022/05/31 00:35:54;;;;;;;6.25;3.92;;;;;;;20.40;59.35;94670.25;4160239;28;20123;-52
2022/05/31 00:37:57;;;;;;;6.90;4.20;;;;;;;20.41;59.32;94665.72;4171079;28;20367;-52
2022/05/31 00:39:59;;;;;;;;;;;;;;;20.26;60.33;94660.75;4162464;28;20573;-53
2022/05/31 00:42:04;;;;;;;8.20;4.00;;;;;;;20.12;60.76;94667.25;4161428;28;20337;-53
2022/05/31 00:44:16;;;;;;;6.15;4.25;;;;;;;20.13;60.85;94666.22;4160465;28;20166;-57
2022/05/31 00:46:20;;;;;;;12.25;4.22;;;;;;;20.11;61.25;94666.44;4158968;28;20129;-56
2022/05/31 00:48:28;;;;;;;8.68;4.57;;;;;;;20.09;61.31;94671.16;4160207;28;20534;-55
2022/05/31 00:50:38;;;;;;;9.70;4.30;;;;;;;20.08;61.51;94661.56;4170023;28;20045;-56
2022/05/31 00:52:43;;;;;;;5.85;4.10;;;;;;;20.10;61.46;94661.34;4162555;28;20064;-55
2022/05/31 00:55:08;;;;;;;7.20;4.05;;;;;;;20.06;61.85;94663.63;4174460;28;20072;-53
2022/05/31 00:57:10;;;;;;;6.63;4.25;;;;;;;19.97;62.45;94678.22;4162379;28;20071;-55
2022/05/31 00:59:15;;;;;;;9.07;4.38;;;;;;;19.80;62.82;94668.13;4166864;28;20447;-57
2022/05/31 01:01:17;;;;;;;10.23;4.50;;;;;;;19.78;62.87;94672.84;4158083;28;20127;-56
2022/05/31 01:03:21;;;;;;;13.68;4.85;;;;;;;19.79;63.03;94669.16;4160737;28;20650;-56
2022/05/31 01:05:24;;;;;;;11.63;4.57;;;;;;;19.79;63.02;94671.03;4172753;28;20080;-54
2022/05/31 01:07:26;;;;;;;5.78;4.35;;;;;;;19.79;62.92;94679.81;4161927;28;20238;-53
2022/05/31 01:09:29;;;;;;;7.50;4.35;;;;;;;19.73;63.21;94682.50;4161372;28;20460;-54
2022/05/31 01:11:35;;;;;;;9.38;4.40;;;;;;;19.68;63.25;94676.97;4165588;28;20119;-56
2022/05/31 01:13:37;;;;;;;7.85;4.10;;;;;;;19.69;63.00;94679.44;4167562;28;20045;-56
2022/05/31 01:15:42;;;;;;;5.47;4.30;;;;;;;19.71;63.02;94674.75;4171448;28;20041;-53
2022/05/31 01:17:44;;;;;;;10.15;4.18;;;;;;;19.75;62.93;94677.81;4175049;28;20110;-55
2022/05/31 01:19:56;;;;;;;8.73;4.50;;;;;;;19.80;62.84;94683.28;4171056;28;20049;-56
2022/05/31 01:21:58;;;;;;;8.85;4.22;;;;;;;19.79;62.60;94681.66;4168928;28;20080;-56
2022/05/31 01:24:07;;;;;;;10.95;4.95;;;;;;;19.82;62.78;94678.56;4159811;28;20072;-54
2022/05/31 01:26:17;;;;;;;8.70;4.90;;;;;;;19.84;62.64;94677.28;4157707;28;20092;-54
2022/05/31 01:28:53;;;;;;;9.07;4.28;;;;;;;19.84;62.51;94684.47;4162014;28;20218;-54
2022/05/31 01:31:01;;;;;;;9.10;4.43;;;;;;;19.87;62.65;94685.88;4169851;28;20059;-54
2022/05/31 01:33:11;;;;;;;11.55;4.45;;;;;;;19.88;62.60;94683.00;4156598;28;20434;-51
2022/05/31 01:35:32;;;;;;;13.00;5.03;;;;;;;19.85;62.70;94680.75;4163025;28;20044;-53
2022/05/31 01:37:47;;;;;;;8.30;4.70;;;;;;;19.86;63.10;94679.75;4171593;28;20053;-54
2022/05/31 01:39:52;;;;;;;7.03;4.18;;;;;;;19.85;63.13;94675.44;4175453;28;20119;-54
2022/05/31 01:42:09;;;;;;;11.65;4.78;;;;;;;19.84;63.07;94676.50;4162046;28;20536;-56
2022/05/31 01:44:14;;;;;;;5.53;4.72;;;;;;;19.84;62.88;94671.97;4160896;28;20123;-55
2022/05/31 01:46:22;;;;;;;9.30;4.32;;;;;;;19.85;62.66;94675.44;4170793;28;20089;-54
2022/05/31 01:48:25;;;;;;;9.45;4.20;;;;;;;19.87;62.54;94673.38;4159946;28;20129;-53
2022/05/31 01:50:27;;;;;;;7.50;4.93;;;;;;;19.88;62.70;94672.38;4157859;28;20127;-56
2022/05/31 01:52:30;;;;;;;7.30;4.35;;;;;;;19.89;62.79;94673.19;4156609;28;20050;-53
2022/05/31 01:54:33;;;;;;;7.43;4.60;;;;;;;19.89;62.79;94673.19;4157956;28;20049;-53
2022/05/31 01:56:35;;;;;;;9.93;4.60;;;;;;;19.89;62.86;94670.53;4165298;28;20512;-55
2022/05/31 01:58:40;;;;;;;10.27;4.28;;;;;;;19.90;62.77;94667.66;4164802;28;20294;-57
2022/05/31 02:00:42;;;;;;;9.13;4.75;;;;;;;19.90;62.61;94670.31;4157709;28;20053;-55
2022/05/31 02:02:49;;;;;;;6.82;4.60;;;;;;;19.91;62.76;94674.59;4167545;28;20543;-55
2022/05/31 02:04:51;;;;;;;11.35;4.57;;;;;;;19.91;62.52;94671.91;4162088;28;20061;-52
2022/05/31 02:07:10;;;;;;;9.65;5.22;;;;;;;19.90;62.72;94675.63;4166470;28;20052;-54
2022/05/31 02:09:14;;;;;;;12.38;4.75;;;;;;;19.88;63.18;94676.88;4161479;28;20439;-54
2022/05/31 02:11:15;;;;;;;;;;;;;;;19.82;63.33;94670.56;4158620;28;20093;-55
2022/05/31 02:13:18;;;;;;;7.57;4.90;;;;;;;19.73;63.61;94675.34;4158962;28;19982;-54
2022/05/31 02:15:21;;;;;;;8.45;4.93;;;;;;;19.65;63.77;94679.03;4164665;28;20407;-56
2022/05/31 02:17:23;;;;;;;9.00;4.85;;;;;;;19.58;63.91;94672.97;4164644;28;20454;-55
2022/05/31 02:19:28;;;;;;;16.15;4.75;;;;;;;19.53;63.91;94678.13;4164932;28;20064;-54
2022/05/31 02:21:35;;;;;;;9.98;5.00;;;;;;;19.49;64.10;94676.94;4173062;28;20497;-54
2022/05/31 02:23:37;;;;;;;9.85;5.75;;;;;;;19.46;64.04;94687.97;4164780;28;20059;-58
2022/05/31 02:25:40;;;;;;;8.82;5.13;;;;;;;19.44;64.31;94688.19;4165867;28;20149;-56
2022/05/31 02:27:42;;;;;;;11.23;5.38;;;;;;;19.45;64.78;94696.97;4170609;28;20072;-55
2022/05/31 02:29:44;;;;;;;9.80;4.70;;;;;;;19.47;64.99;94694.09;4171257;28;20057;-56
2022/05/31 02:31:46;;;;;;;9.50;4.88;;;;;;;19.51;64.82;94690.81;4174597;28;20425;-53
2022/05/31 02:33:48;;;;;;;10.52;4.97;;;;;;;19.51;64.82;94685.50;4167618;28;20536;-55
2022/05/31 02:35:50;;;;;;;8.77;4.90;;;;;;;19.52;65.11;94688.97;4158340;28;20104;-54
2022/05/31 02:37:52;;;;;;;9.85;5.07;;;;;;;19.51;65.16;94682.84;4167804;28;20091;-53
2022/05/31 02:39:54;;;;;;;11.60;5.23;;;;;;;19.51;65.00;94688.16;4161630;28;20057;-55
2022/05/31 02:41:56;;;;;;;7.80;4.78;;;;;;;19.52;64.51;94686.31;4173918;28;20053;-55
2022/05/31 02:43:59;;;;;;;8.13;4.35;;;;;;;19.47;64.98;94694.09;4175256;28;20049;-57
2022/05/31 02:46:00;;;;;;;10.20;5.97;;;;;;;19.47;64.84;94692.28;4166033;28;20430;-55
2022/05/31 02:48:02;;;;;;;9.35;5.05;;;;;;;19.33;65.00;94688.84;4159012;28;20146;-54
2022/05/31 02:50:05;;;;;;;8.55;4.88;;;;;;;19.20;65.57;94704.88;4171037;28;20049;-54
2022/05/31 02:52:07;;;;;;;8.52;4.97;;;;;;;19.15;66.04;94702.06;4174668;28;20460;-55
2022/05/31 02:54:11;;;;;;;8.82;4.80;;;;;;;19.14;66.12;94703.88;4170626;28;20131;-56
2022/05/31 02:56:12;;;;;;;;;;;;;;;18.99;66.43;94711.28;4165929;28;20350;-54
2022/05/31 02:58:14;;;;;;;10.43;5.40;;;;;;;18.75;67.24;94710.94;4165372;28;19920;-56
2022/05/31 03:00:16;;;;;;;10.48;5.22;;;;;;;18.62;67.92;94711.00;4156496;28;20447;-54
2022/05/31 03:02:18;;;;;;;9.38;5.43;;;;;;;18.38;68.91;94715.13;4164342;28;20056;-52
2022/05/31 03:04:20;;;;;;;8.95;5.18;;;;;;;18.34;69.18;94712.06;4170526;28;20168;-54
2022/05/31 03:06:22;;;;;;;11.15;5.63;;;;;;;18.15;69.40;94716.38;4164090;28;20079;-53
2022/05/31 03:08:24;;;;;;;13.38;5.70;;;;;;;17.63;71.26;94717.97;4174308;28;20052;-53
2022/05/31 03:10:29;;;;;;;11.40;5.28;;;;;;;17.32;72.30;94721.19;4162466;28;20134;-54
2022/05/31 03:12:30;;;;;;;15.75;5.60;;;;;;;17.05;73.05;94728.22;4157541;28;20183;-57
2022/05/31 03:14:42;;;;;;;13.40;5.03;;;;;;;16.83;73.91;94724.88;4169313;28;20564;-55
2022/05/31 03:16:46;;;;;;;13.30;5.72;;;;;;;16.66;74.74;94724.38;4156680;28;20057;-54
2022/05/31 03:18:53;;;;;;;11.15;5.88;;;;;;;16.70;74.98;94721.13;4158374;28;20076;-54
2022/05/31 03:20:57;;;;;;;13.93;6.15;;;;;;;16.99;74.46;94724.53;4157785;28;20054;-54
2022/05/31 03:23:04;;;;;;;10.60;6.72;;;;;;;17.26;73.28;94722.78;4173735;28;20087;-54
2022/05/31 03:25:14;;;;;;;13.52;6.43;;;;;;;17.52;72.23;94724.69;4167352;28;20057;-53
2022/05/31 03:27:16;;;;;;;10.85;6.65;;;;;;;17.60;71.64;94728.97;4169559;28;20048;-50
2022/05/31 03:29:18;;;;;;;10.50;6.43;;;;;;;17.73;71.47;94728.19;4159399;28;20061;-54
2022/05/31 03:31:20;;;;;;;14.13;7.03;;;;;;;17.85;71.03;94728.41;4170385;28;20056;-51
2022/05/31 03:33:21;;;;;;;12.93;6.97;;;;;;;17.97;70.28;94732.91;4163012;28;20077;-52
2022/05/31 03:35:23;;;;;;;20.90;7.70;;;;;;;18.12;69.75;94739.84;4166443;28;20263;-54
2022/05/31 03:37:25;;;;;;;15.43;7.43;;;;;;;18.26;69.35;94741.44;4169520;28;20044;-51
2022/05/31 03:39:26;;;;;;;13.00;7.15;;;;;;;18.34;68.74;94737.78;4161798;28;20137;-51
2022/05/31 03:41:33;;;;;;;22.67;7.88;;;;;;;18.46;68.45;94749.41;4170386;28;20366;-53
2022/05/31 03:43:36;;;;;;;10.25;6.43;;;;;;;18.56;67.68;94747.16;4160105;28;20490;-50
2022/05/31 03:45:40;;;;;;;13.38;7.65;;;;;;;18.67;67.62;94743.03;4174913;28;20052;-52
2022/05/31 03:47:41;;;;;;;16.15;7.20;;;;;;;18.73;67.11;94746.69;4170426;28;20131;-54
2022/05/31 03:49:43;;;;;;;13.82;7.63;;;;;;;18.75;66.87;94741.97;4161088;28;20045;-52
2022/05/31 03:51:45;;;;;;;18.00;6.22;;;;;;;18.56;67.35;94746.31;4173667;28;20405;-50
2022/05/31 03:53:46;;;;;;;12.95;6.93;;;;;;;18.50;67.55;94747.13;4162046;28;20716;-52
2022/05/31 03:55:48;;;;;;;19.52;7.22;;;;;;;18.32;68.10;94745.94;4164871;28;20094;-53
2022/05/31 03:57:52;;;;;;;13.07;6.05;;;;;;;18.23;67.94;94751.66;4173430;28;20114;-52
2022/05/31 03:59:53;;;;;;;11.73;7.05;;;;;;;18.12;68.61;94743.31;4166755;28;20478;-55
2022/05/31 04:01:55;;;;;;;12.20;6.00;;;;;;;18.11;68.94;94748.81;4162301;28;20045;-52
2022/05/31 04:03:57;;;;;;;15.68;6.55;;;;;;;18.23;69.11;94747.16;4159405;28;20123;-54
2022/05/31 04:05:58;;;;;;;13.82;6.60;;;;;;;18.25;68.52;94744.31;4172607;28;20115;-52
2022/05/31 04:08:06;;;;;;;12.07;5.95;;;;;;;18.42;68.35;94748.19;4171181;28;20056;-53
2022/05/31 04:10:10;;;;;;;12.98;5.88;;;;;;;18.63;67.47;94744.47;4170293;28;20410;-53
2022/05/31 04:12:11;;;;;;;12.73;5.95;;;;;;;18.77;67.00;94745.25;4177494;28;20255;-54
2022/05/31 04:14:13;;;;;;;12.15;5.90;;;;;;;18.91;66.81;94743.41;4161533;28;20580;-50
2022/05/31 04:16:16;;;;;;;8.50;5.50;;;;;;;19.07;66.13;94747.44;4159991;28;20041;-55
2022/05/31 04:18:24;;;;;;;13.13;5.95;;;;;;;19.18;65.60;94752.88;4168254;28;20128;-53
2022/05/31 04:20:26;;;;;;;13.38;6.65;;;;;;;19.18;65.21;94755.53;4173140;28;20112;-53
2022/05/31 04:22:28;;;;;;;15.73;6.22;;;;;;;19.11;65.46;94759.25;4163917;28;20253;-54
2022/05/31 04:24:29;;;;;;;12.60;6.07;;;;;;;18.54;67.15;94764.25;4161536;28;20411;-54
2022/05/31 04:26:35;;;;;;;13.32;6.45;;;;;;;18.13;68.71;94770.63;4171820;28;20127;-50
2022/05/31 04:28:37;;;;;;;13.85;6.30;;;;;;;17.79;70.37;94769.78;4161068;28;20057;-50
2022/05/31 04:30:45;;;;;;;11.95;7.45;;;;;;;17.90;69.91;94766.53;4170552;28;20114;-55
2022/05/31 04:32:47;;;;;;;16.02;6.80;;;;;;;17.78;70.18;94768.13;4176271;28;20145;-49
2022/05/31 04:34:49;;;;;;;15.65;6.00;;;;;;;17.91;69.87;94770.81;4160601;28;20048;-49
2022/05/31 04:36:50;;;;;;;10.75;6.00;;;;;;;18.11;69.24;94772.66;4165190;28;20114;-53
2022/05/31 04:38:52;;;;;;;11.70;6.07;;;;;;;18.21;69.31;94779.19;4176756;28;20107;-53
2022/05/31 04:40:54;;;;;;;11.10;6.18;;;;;;;18.40;68.83;94768.78;4175870;28;20433;-53
2022/05/31 04:42:56;;;;;;;10.80;5.93;;;;;;;18.50;68.38;94771.84;4176317;28;20106;-49
2022/05/31 04:44:58;;;;;;;11.57;6.43;;;;;;;18.48;67.86;94775.72;4162877;28;20079;-53
2022/05/31 04:47:00;;;;;;;15.13;6.55;;;;;;;18.45;68.06;94776.94;4160667;28;20045;-50
2022/05/31 04:49:02;;;;;;;13.40;6.40;;;;;;;18.54;68.19;94781.03;4159566;28;20398;-53
2022/05/31 04:51:04;;;;;;;16.23;7.13;;;;;;;18.63;68.13;94789.59;4166328;28;20430;-54
2022/05/31 04:53:05;;;;;;;11.02;6.13;;;;;;;18.81;67.27;94788.94;4171337;28;20064;-52
2022/05/31 04:55:07;;;;;;;13.05;6.40;;;;;;;18.87;67.29;94788.13;4166338;28;20190;-51
2022/05/31 04:57:09;;;;;;;16.40;6.45;;;;;;;18.79;67.65;94783.84;4174519;28;20308;-51
2022/05/31 04:59:11;;;;;;;12.13;6.40;;;;;;;18.69;67.93;94790.56;4172072;28;20053;-52
2022/05/31 05:01:13;;;;;;;12.10;6.00;;;;;;;18.71;68.11;94789.34;4158440;28;20095;-51
2022/05/31 05:03:15;;;;;;;12.55;5.80;;;;;;;18.59;68.08;94789.16;4160982;28;20056;-52
2022/05/31 05:05:16;;;;;;;33.13;7.47;;;;;;;18.44;68.68;94785.94;4159640;28;20552;-53
2022/05/31 05:07:18;;;;;;;19.58;6.93;;;;;;;18.49;68.69;94782.66;4170147;28;20461;-51
2022/05/31 05:09:20;;;;;;;11.85;6.30;;;;;;;18.57;68.47;94785.09;4162692;28;20108;-51
2022/05/31 05:11:26;;;;;;;14.43;6.13;;;;;;;18.78;67.63;94784.88;4176243;28;20052;-53
2022/05/31 05:13:28;;;;;;;15.20;5.75;;;;;;;18.96;67.20;94786.06;4167102;28;20133;-54
2022/05/31 05:15:30;;;;;;;8.15;5.00;;;;;;;19.13;66.90;94786.41;4157721;28;20052;-49
2022/05/31 05:17:32;;;;;;;10.80;5.20;;;;;;;19.26;66.11;94783.72;4159806;28;20053;-52
2022/05/31 05:19:33;;;;;;;12.45;5.43;;;;;;;19.41;65.59;94794.88;4168715;28;20685;-53
2022/05/31 05:21:35;;;;;;;11.25;4.75;;;;;;;19.58;64.72;94791.75;4159150;28;20046;-50
2022/05/31 05:23:37;;;;;;;10.13;5.00;;;;;;;19.62;64.42;94791.09;4168538;28;20134;-51
2022/05/31 05:25:39;;;;;;;8.95;4.68;;;;;;;19.34;64.47;94786.13;4175119;28;20096;-52
2022/05/31 05:27:40;;;;;;;14.93;5.30;;;;;;;19.08;65.41;94780.91;4160724;28;20156;-54
2022/05/31 05:32:07;;;;;;;9.00;4.78;;;;;;;18.77;66.46;94787.69;4158930;28;20133;-53
2022/05/31 05:34:09;;;;;;;15.05;4.82;;;;;;;18.90;66.49;94792.19;4159751;28;20061;-52
2022/05/31 05:36:11;;;;;;;16.63;5.68;;;;;;;19.14;65.47;94790.69;4158377;28;20077;-52
2022/05/31 05:38:13;;;;;;;8.15;4.43;;;;;;;19.41;64.31;94794.88;4172097;28;20245;-52
2022/05/31 05:40:15;;;;;;;7.40;4.75;;;;;;;19.65;63.92;94798.63;4160554;28;20057;-51
2022/05/31 05:42:17;;;;;;;11.60;5.30;;;;;;;19.94;63.62;94792.97;4175404;28;20110;-49
2022/05/31 05:44:18;;;;;;;10.07;4.78;;;;;;;19.86;63.04;94791.41;4169004;28;20368;-53
2022/05/31 05:46:26;;;;;;;6.65;4.78;;;;;;;19.91;63.46;94796.88;4157376;28;20054;-51
2022/05/31 05:48:28;;;;;;;8.20;4.95;;;;;;;20.13;63.06;94793.88;4157842;28;20046;-51
2022/05/31 05:50:30;;;;;;;8.68;4.50;;;;;;;20.17;62.93;94793.22;4158700;28;20061;-49
2022/05/31 05:52:33;;;;;;;12.50;5.13;;;;;;;20.11;63.43;94793.25;4159125;28;20667;-53
2022/05/31 05:54:34;;;;;;;10.23;6.07;;;;;;;19.94;63.97;94796.47;4158881;28;20068;-52
2022/05/31 05:56:36;;;;;;;11.05;5.35;;;;;;;19.87;64.18;94797.53;4169560;28;20230;-53
2022/05/31 05:58:39;;;;;;;11.18;5.85;;;;;;;19.95;64.25;94794.63;4162096;28;20057;-51
2022/05/31 06:00:47;;;;;;;12.43;6.28;;;;;;;20.19;63.64;94801.78;4158011;28;20053;-52
2022/05/31 06:02:55;;;;;;;13.75;5.32;;;;;;;20.29;63.51;94805.84;4173194;28;20120;-51
2022/05/31 06:05:09;;;;;;;10.73;5.35;;;;;;;20.39;63.40;94798.16;4164530;28;20412;-52
2022/05/31 06:07:34;;;;;;;15.40;5.50;;;;;;;20.62;62.70;94803.72;4172308;28;20076;-51
2022/05/31 06:09:36;;;;;;;13.88;5.72;;;;;;;20.86;61.56;94807.41;4158747;28;20468;-53
2022/05/31 06:11:43;;;;;;;12.90;6.57;;;;;;;20.73;62.00;94810.16;4165614;28;20480;-52
2022/05/31 06:13:49;;;;;;;12.32;5.45;;;;;;;20.74;61.74;94803.03;4163913;28;20441;-53
2022/05/31 06:15:54;;;;;;;8.35;5.45;;;;;;;20.48;62.80;94796.03;4156585;28;20076;-54
2022/05/31 06:17:58;;;;;;;12.98;5.63;;;;;;;20.68;62.48;94801.22;4159018;28;20129;-51
2022/05/31 06:20:04;;;;;;;15.32;6.13;;;;;;;20.85;62.10;94795.09;4165107;28;20066;-51
2022/05/31 06:22:06;;;;;;;15.10;6.70;;;;;;;20.97;61.43;94802.38;4163520;28;20057;-52
2022/05/31 06:24:08;;;;;;;9.52;6.70;;;;;;;20.95;61.35;94802.59;4170039;28;20106;-49
2022/05/31 06:26:09;;;;;;;11.80;6.80;;;;;;;21.04;61.04;94798.59;4174135;28;20130;-52
2022/05/31 06:28:11;;;;;;;12.18;6.78;;;;;;;21.06;60.93;94796.53;4170428;28;20057;-53
2022/05/31 06:30:13;;;;;;;15.27;7.25;;;;;;;21.02;60.72;94794.53;4164560;28;20086;-53
2022/05/31 06:32:16;;;;;;;18.58;7.47;;;;;;;20.98;61.17;94796.00;4165059;28;20061;-54
2022/05/31 06:34:18;;;;;;;13.30;7.50;;;;;;;20.83;61.70;94797.19;4171300;28;20075;-51
2022/05/31 06:36:20;;;;;;;15.48;7.88;;;;;;;20.73;62.52;94802.19;4158984;28;20478;-52
2022/05/31 06:38:22;;;;;;;13.35;7.93;;;;;;;20.84;62.58;94798.81;4171595;28;20136;-49
2022/05/31 06:40:24;;;;;;;15.85;7.63;;;;;;;21.12;61.83;94800.16;4174569;28;20417;-51
2022/05/31 06:42:26;;;;;;;14.82;8.30;;;;;;;21.27;60.97;94792.63;4168950;28;20464;-52
2022/05/31 06:44:31;;;;;;;11.80;7.15;;;;;;;21.31;60.53;94786.81;4167379;28;20053;-50
2022/05/31 06:46:33;;;;;;;14.57;8.10;;;;;;;20.92;61.18;94791.56;4162571;28;20053;-53
2022/05/31 06:48:35;;;;;;;10.98;6.78;;;;;;;20.81;61.98;94793.91;4157839;28;20068;-50
2022/05/31 06:50:36;;;;;;;12.23;7.90;;;;;;;21.07;61.87;94784.03;4158595;28;20145;-54
2022/05/31 06:57:19;;;;;;;14.02;8.32;;;;;;;21.06;61.34;94785.88;4174450;28;20496;-52
2022/05/31 06:59:21;;;;;;;14.55;8.25;;;;;;;21.27;61.06;94784.63;4170388;28;20045;-54
2022/05/31 07:01:30;;;;;;;10.07;7.38;;;;;;;21.56;60.05;94786.75;4156979;28;20054;-49
2022/05/31 07:03:32;;;;;;;14.30;7.22;;;;;;;21.86;59.42;94781.44;4158827;28;20060;-50
2022/05/31 07:05:34;;;;;;;14.63;7.30;;;;;;;21.97;58.91;94783.31;4159692;28;20061;-52
2022/05/31 07:07:43;;;;;;;13.50;7.35;;;;;;;22.08;58.68;94787.03;4170305;28;20514;-51
2022/05/31 07:09:45;;;;;;;16.98;7.93;;;;;;;22.07;58.62;94783.56;4157894;28;20069;-50
2022/05/31 07:11:46;;;;;;;15.38;8.10;;;;;;;22.18;58.24;94783.84;4158446;28;20053;-56
2022/05/31 07:13:49;;;;;;;14.75;8.00;;;;;;;22.39;58.06;94785.16;4158104;28;20061;-54
2022/05/31 07:15:52;;;;;;;13.10;7.72;;;;;;;22.53;57.47;94781.22;4156484;28;20053;-49
2022/05/31 07:18:13;;;;;;;16.23;7.82;;;;;;;22.65;56.97;94782.06;4164240;28;20051;-54
2022/05/31 07:20:14;;;;;;;18.33;8.50;;;;;;;22.63;56.68;94778.78;4163790;28;20060;-51
2022/05/31 07:22:17;;;;;;;19.10;8.27;;;;;;;22.59;56.82;94785.63;4161630;28;20134;-49
2022/05/31 07:24:18;;;;;;;17.48;9.40;;;;;;;22.68;56.36;94776.22;4168666;28;20126;-51
2022/05/31 07:26:24;;;;;;;15.05;8.68;;;;;;;22.58;56.44;94788.53;4173535;28;20041;-50
2022/05/31 07:28:41;;;;;;;19.20;10.70;;;;;;;22.48;56.78;94791.78;4169599;28;20136;-50
2022/05/31 07:30:43;;;;;;;15.68;7.43;;;;;;;22.23;57.59;94787.44;4165340;28;20107;-52
2022/05/31 07:32:45;;;;;;;13.90;6.93;;;;;;;22.26;57.45;94791.50;4172402;28;20143;-54
2022/05/31 07:35:07;;;;;;;14.57;6.70;;;;;;;22.49;57.17;94786.19;4162026;28;20072;-54
2022/05/31 07:37:10;;;;;;;15.27;7.18;;;;;;;22.65;56.20;94779.38;4166156;28;20060;-50
2022/05/31 07:39:14;;;;;;;18.42;8.13;;;;;;;22.71;56.56;94782.97;4170062;28;20118;-53
2022/05/31 07:41:16;;;;;;;29.15;12.57;;;;;;;22.76;56.41;94783.09;4175797;28;20057;-55
2022/05/31 07:43:21;;;;;;;15.77;7.57;;;;;;;22.76;56.11;94783.09;4160916;28;20083;-49
2022/05/31 07:45:23;;;;;;;17.20;7.32;;;;;;;22.65;56.12;94774.03;4159777;28;20049;-53
2022/05/31 07:47:25;;;;;;;16.63;7.18;;;;;;;22.84;56.14;94774.72;4160624;28;20045;-52
2022/05/31 07:49:27;;;;;;;13.32;5.95;;;;;;;23.13;55.53;94769.50;4161274;28;20069;-52
2022/05/31 07:51:28;;;;;;;12.15;6.68;;;;;;;23.33;54.95;94769.09;4161042;28;20123;-53
2022/05/31 07:53:31;;;;;;;14.43;6.13;;;;;;;23.52;54.42;94769.72;4173304;28;20395;-53
2022/05/31 07:55:32;;;;;;;12.45;6.45;;;;;;;23.21;54.42;94761.09;4159695;28;20505;-55
2022/05/31 07:59:55;;;;;;;14.10;6.03;;;;;;;23.27;54.47;94764.69;4158926;28;20053;-53
2022/05/31 08:02:00;;;;;;;10.90;5.13;;;;;;;23.24;53.92;94763.28;4160877;28;20390;-52
2022/05/31 08:04:02;;;;;;;13.03;5.73;;;;;;;23.03;54.59;94769.25;4167230;28;20053;-53
2022/05/31 08:06:15;;;;;;;10.43;6.13;;;;;;;23.18;54.46;94761.56;4173247;28;20106;-55
2022/05/31 08:08:17;;;;;;;13.73;6.55;;;;;;;23.34;54.45;94762.69;4162221;28;20457;-55
2022/05/31 08:10:35;;;;;;;20.63;8.02;;;;;;;23.52;53.46;94767.84;4160910;28;20212;-52
2022/05/31 08:12:37;;;;;;;13.07;6.15;;;;;;;23.44;52.96;94765.56;4160155;28;20482;-54
2022/05/31 08:14:39;;;;;;;9.98;5.40;;;;;;;23.49;52.62;94764.88;4168725;28;20061;-53
2022/05/31 08:16:40;;;;;;;12.43;5.57;;;;;;;23.62;52.05;94769.94;4176615;28;20674;-57
2022/05/31 08:18:43;;;;;;;8.40;5.28;;;;;;;23.57;52.19;94769.81;4162978;28;20132;-53
2022/05/31 08:20:44;;;;;;;10.20;5.47;;;;;;;23.67;51.67;94770.00;4160692;28;20422;-53
2022/05/31 08:22:47;;;;;;;12.30;5.13;;;;;;;23.73;52.16;94762.09;4161363;28;20053;-53
2022/05/31 08:24:49;;;;;;;12.30;6.20;;;;;;;23.76;51.85;94767.78;4169858;28;20461;-52
2022/05/31 08:26:51;;;;;;;14.05;6.43;;;;;;;23.88;52.17;94757.06;4165437;28;20640;-51
2022/05/31 08:28:53;;;;;;;11.55;5.32;;;;;;;23.80;51.65;94760.13;4160238;28;20414;-52
2022/05/31 08:31:00;;;;;;;14.77;5.95;;;;;;;23.84;51.80;94763.94;4161454;28;20151;-52
2022/05/31 08:33:02;;;;;;;8.77;4.63;;;;;;;23.92;51.79;94753.66;4169298;28;20061;-51
2022/05/31 08:35:05;;;;;;;15.82;5.32;;;;;;;24.15;51.07;94753.75;4159987;28;20057;-53
2022/05/31 08:37:10;;;;;;;13.27;5.43;;;;;;;24.43;51.21;94747.50;4160533;28;20063;-54
2022/05/31 08:39:12;;;;;;;9.15;4.85;;;;;;;24.60;48.84;94739.50;4173659;28;20466;-51
2022/05/31 08:41:30;;;;;;;9.57;5.07;;;;;;;24.52;49.97;94738.03;4163121;28;20056;-51
2022/05/31 08:43:44;;;;;;;13.25;4.57;;;;;;;24.49;49.13;94741.19;4167628;28;20564;-53
2022/05/31 08:45:53;;;;;;;;;;;;;;;24.44;48.28;94746.47;4159669;28;20357;-50
2022/05/31 08:48:09;;;;;;;10.55;4.00;;;;;;;24.41;47.27;94742.38;4159085;28;19961;-50
2022/05/31 08:53:03;;;;;;;10.05;4.68;;;;;;;24.60;47.47;94739.50;4159544;28;20460;-51
2022/05/31 08:57:38;;;;;;;7.20;3.85;;;;;;;24.70;46.15;94728.94;4157852;28;20099;-52
2022/05/31 08:59:57;;;;;;;13.20;4.00;;;;;;;24.81;44.66;94727.19;4156929;28;20053;-51
2022/05/31 09:02:09;;;;;;;11.15;3.90;;;;;;;25.07;46.42;94734.50;4165339;28;20118;-53
2022/05/31 09:04:43;;;;;;;10.57;4.53;;;;;;;25.10;45.83;94734.03;4161212;28;20053;-52
2022/05/31 09:06:48;;;;;;;9.35;4.32;;;;;;;25.13;46.55;94732.72;4161984;28;20110;-52
2022/05/31 09:09:05;;;;;;;12.75;4.22;;;;;;;25.33;46.68;94734.84;4163562;28;20482;-52
2022/05/31 09:11:42;;;;;;;11.13;4.03;;;;;;;25.49;45.31;94735.81;4160061;28;20045;-50
2022/05/31 09:13:50;;;;;;;7.43;4.00;;;;;;;25.62;44.84;94730.09;4167287;28;20096;-50
2022/05/31 09:16:26;;;;;;;12.23;4.68;;;;;;;25.67;45.08;94732.00;4157281;28;20193;-51
2022/05/31 09:18:51;;;;;;;12.38;4.80;;;;;;;25.54;45.40;94735.91;4159372;28;20140;-48
2022/05/31 09:20:59;;;;;;;7.78;4.32;;;;;;;25.46;44.80;94737.13;4157911;28;20644;-50
2022/05/31 09:23:01;;;;;;;8.70;4.75;;;;;;;25.72;45.26;94727.47;4171207;28;20053;-51
2022/05/31 09:25:05;;;;;;;8.65;4.30;;;;;;;25.89;44.63;94723.94;4159297;28;20065;-55
2022/05/31 09:27:13;;;;;;;9.07;4.25;;;;;;;26.04;44.24;94718.69;4158987;28;20051;-54
2022/05/31 09:29:25;;;;;;;6.57;3.72;;;;;;;26.23;43.57;94721.81;4159577;28;20053;-50
2022/05/31 09:31:26;;;;;;;6.20;3.88;;;;;;;26.34;43.45;94720.81;4167539;28;20044;-48
2022/05/31 09:33:40;;;;;;;8.80;3.97;;;;;;;26.25;42.35;94721.56;4175206;28;20147;-53
2022/05/31 09:36:00;;;;;;;11.70;4.10;;;;;;;26.41;43.55;94720.59;4158149;28;20067;-51
2022/05/31 09:38:31;;;;;;;7.72;3.80;;;;;;;26.63;43.12;94717.00;4168077;28;20126;-50
2022/05/31 09:40:36;;;;;;;12.20;4.10;;;;;;;26.53;41.47;94707.78;4159323;28;20079;-53
2022/05/31 09:42:50;;;;;;;11.77;4.20;;;;;;;26.44;42.14;94706.66;4172157;28;20060;-50
2022/05/31 09:45:02;;;;;;;12.73;4.00;;;;;;;26.52;42.67;94719.63;4163448;28;20548;-48
2022/05/31 09:47:25;;;;;;;8.77;3.88;;;;;;;26.69;42.32;94726.72;4164396;28;20069;-51
2022/05/31 09:49:39;;;;;;;11.73;3.33;;;;;;;26.58;41.51;94711.63;4157666;28;20049;-52
2022/05/31 09:51:42;;;;;;;11.32;4.43;;;;;;;26.02;42.72;94720.03;4175926;28;20191;-53
2022/05/31 09:58:36;;;;;;;11.88;3.85;;;;;;;25.94;42.47;94708.69;4158728;28;20064;-54
2022/05/31 10:01:01;;;;;;;7.85;3.80;;;;;;;26.22;42.72;94711.31;4157651;28;20080;-51
2022/05/31 10:03:14;;;;;;;11.27;4.53;;;;;;;26.40;42.32;94715.50;4161703;28;20056;-47
2022/05/31 10:05:20;;;;;;;7.55;3.90;;;;;;;26.28;42.92;94716.47;4170240;28;20049;-51